Terminal Aerodrome Forecast
Issued by NWS

Home | Current Version | Previous Version | Text Only | Print | Product List | Glossary On
Versions: 1 2 3 4 5 6 7 8 9 10 11 12 13 14 15 16 17
000
FTUS43 KDTX 231730
TAFDET
TAF
KDET 231730Z 2318/2418 16007KT P6SM BKN100 OVC250
     FM232300 16010KT 4SM -SHRA BR OVC015
     FM240200 14013KT 2SM RA BR OVC008
     FM240500 16015KT 2SM RA BR OVC004
     FM241100 21015G25KT 4SM -SHRA OVC008
     FM241300 21020G30KT 6SM -SHRA SCT025 BKN040=

USA.gov is the U.S. government's official web portal to all federal, state and local government web resources and services.